sensor_id;sensor_type;location;lat;lon;timestamp;P1;durP1;ratioP1;P2;durP2;ratioP2
41059;SDS011;26811;53.160;8.202;2023-05-10T00:03:01;21.75;;;11.95;;
41059;SDS011;26811;53.160;8.202;2023-05-10T00:08:04;17.33;;;10.25;;
41059;SDS011;26811;53.160;8.202;2023-05-10T00:13:04;18.70;;;10.43;;
41059;SDS011;26811;53.160;8.202;2023-05-10T00:18:05;20.13;;;10.80;;
41059;SDS011;26811;53.160;8.202;2023-05-10T00:23:06;17.90;;;10.60;;
41059;SDS011;26811;53.160;8.202;2023-05-10T00:28:06;18.70;;;10.90;;
41059;SDS011;26811;53.160;8.202;2023-05-10T00:33:07;16.38;;;10.77;;
41059;SDS011;26811;53.160;8.202;2023-05-10T00:38:07;14.75;;;10.00;;
41059;SDS011;26811;53.160;8.202;2023-05-10T00:43:08;16.50;;;10.38;;
41059;SDS011;26811;53.160;8.202;2023-05-10T00:48:09;17.15;;;9.20;;
41059;SDS011;26811;53.160;8.202;2023-05-10T00:53:09;16.40;;;9.73;;
41059;SDS011;26811;53.160;8.202;2023-05-10T00:58:10;15.73;;;9.15;;
41059;SDS011;26811;53.160;8.202;2023-05-10T01:03:12;14.15;;;8.60;;
41059;SDS011;26811;53.160;8.202;2023-05-10T01:08:12;14.93;;;8.68;;
41059;SDS011;26811;53.160;8.202;2023-05-10T01:13:13;14.68;;;9.00;;
41059;SDS011;26811;53.160;8.202;2023-05-10T01:18:23;12.23;;;8.90;;
41059;SDS011;26811;53.160;8.202;2023-05-10T01:28:51;14.40;;;8.98;;
41059;SDS011;26811;53.160;8.202;2023-05-10T01:34:19;16.02;;;9.25;;
41059;SDS011;26811;53.160;8.202;2023-05-10T01:39:30;12.90;;;8.98;;
41059;SDS011;26811;53.160;8.202;2023-05-10T01:44:42;14.15;;;10.02;;
41059;SDS011;26811;53.160;8.202;2023-05-10T01:49:52;15.70;;;10.25;;
41059;SDS011;26811;53.160;8.202;2023-05-10T01:55:16;17.40;;;10.30;;
41059;SDS011;26811;53.160;8.202;2023-05-10T02:00:18;16.27;;;10.23;;
41059;SDS011;26811;53.160;8.202;2023-05-10T02:05:20;14.33;;;9.17;;
41059;SDS011;26811;53.160;8.202;2023-05-10T02:10:22;16.43;;;9.30;;
41059;SDS011;26811;53.160;8.202;2023-05-10T02:15:22;16.00;;;9.88;;
41059;SDS011;26811;53.160;8.202;2023-05-10T02:20:24;15.63;;;10.00;;
41059;SDS011;26811;53.160;8.202;2023-05-10T02:25:26;14.10;;;9.60;;
41059;SDS011;26811;53.160;8.202;2023-05-10T02:30:28;13.07;;;9.00;;
41059;SDS011;26811;53.160;8.202;2023-05-10T02:35:31;11.93;;;8.55;;
41059;SDS011;26811;53.160;8.202;2023-05-10T02:40:33;13.70;;;9.30;;
41059;SDS011;26811;53.160;8.202;2023-05-10T02:45:36;14.68;;;8.82;;
41059;SDS011;26811;53.160;8.202;2023-05-10T02:50:38;13.98;;;9.23;;
41059;SDS011;26811;53.160;8.202;2023-05-10T02:55:43;12.35;;;8.75;;
41059;SDS011;26811;53.160;8.202;2023-05-10T03:00:49;12.55;;;8.55;;
41059;SDS011;26811;53.160;8.202;2023-05-10T03:05:49;16.05;;;9.35;;
41059;SDS011;26811;53.160;8.202;2023-05-10T03:10:54;17.67;;;9.82;;
41059;SDS011;26811;53.160;8.202;2023-05-10T03:16:12;15.63;;;9.70;;
41059;SDS011;26811;53.160;8.202;2023-05-10T03:21:17;15.45;;;10.02;;
41059;SDS011;26811;53.160;8.202;2023-05-10T03:26:24;16.83;;;10.73;;
41059;SDS011;26811;53.160;8.202;2023-05-10T03:31:29;18.33;;;11.45;;
41059;SDS011;26811;53.160;8.202;2023-05-10T03:36:30;19.33;;;11.25;;
41059;SDS011;26811;53.160;8.202;2023-05-10T03:41:30;19.60;;;12.05;;
41059;SDS011;26811;53.160;8.202;2023-05-10T03:46:31;18.80;;;11.07;;
41059;SDS011;26811;53.160;8.202;2023-05-10T03:51:32;13.15;;;8.20;;
41059;SDS011;26811;53.160;8.202;2023-05-10T03:56:32;11.40;;;5.68;;
41059;SDS011;26811;53.160;8.202;2023-05-10T04:01:33;7.65;;;4.90;;
41059;SDS011;26811;53.160;8.202;2023-05-10T04:06:34;5.75;;;3.85;;
41059;SDS011;26811;53.160;8.202;2023-05-10T04:11:35;6.15;;;4.65;;
41059;SDS011;26811;53.160;8.202;2023-05-10T04:23:02;7.22;;;4.35;;
41059;SDS011;26811;53.160;8.202;2023-05-10T04:34:47;7.05;;;4.93;;
41059;SDS011;26811;53.160;8.202;2023-05-10T04:39:56;7.87;;;4.77;;
41059;SDS011;26811;53.160;8.202;2023-05-10T04:44:57;8.30;;;4.90;;
41059;SDS011;26811;53.160;8.202;2023-05-10T04:49:57;9.02;;;4.55;;
41059;SDS011;26811;53.160;8.202;2023-05-10T04:54:58;7.95;;;4.47;;
41059;SDS011;26811;53.160;8.202;2023-05-10T04:59:59;9.38;;;4.10;;
41059;SDS011;26811;53.160;8.202;2023-05-10T05:05:00;8.80;;;4.03;;
41059;SDS011;26811;53.160;8.202;2023-05-10T05:10:00;6.93;;;3.83;;
41059;SDS011;26811;53.160;8.202;2023-05-10T05:15:01;5.07;;;4.15;;
41059;SDS011;26811;53.160;8.202;2023-05-10T05:20:05;7.28;;;4.28;;
41059;SDS011;26811;53.160;8.202;2023-05-10T05:25:06;8.85;;;5.38;;
41059;SDS011;26811;53.160;8.202;2023-05-10T05:30:07;9.68;;;5.57;;
41059;SDS011;26811;53.160;8.202;2023-05-10T05:35:08;6.55;;;4.70;;
41059;SDS011;26811;53.160;8.202;2023-05-10T05:40:11;8.38;;;5.15;;
41059;SDS011;26811;53.160;8.202;2023-05-10T05:45:12;8.98;;;5.25;;
41059;SDS011;26811;53.160;8.202;2023-05-10T05:50:13;8.45;;;5.05;;
41059;SDS011;26811;53.160;8.202;2023-05-10T05:55:13;10.90;;;5.78;;
41059;SDS011;26811;53.160;8.202;2023-05-10T06:00:14;9.98;;;6.35;;
41059;SDS011;26811;53.160;8.202;2023-05-10T06:05:15;11.15;;;5.95;;
41059;SDS011;26811;53.160;8.202;2023-05-10T06:10:16;12.18;;;6.22;;
41059;SDS011;26811;53.160;8.202;2023-05-10T06:15:16;9.55;;;5.72;;
41059;SDS011;26811;53.160;8.202;2023-05-10T06:20:17;11.82;;;6.32;;
41059;SDS011;26811;53.160;8.202;2023-05-10T06:25:17;11.02;;;6.15;;
41059;SDS011;26811;53.160;8.202;2023-05-10T06:30:18;13.45;;;6.45;;
41059;SDS011;26811;53.160;8.202;2023-05-10T06:35:18;11.43;;;6.82;;
41059;SDS011;26811;53.160;8.202;2023-05-10T06:40:19;10.95;;;6.97;;
41059;SDS011;26811;53.160;8.202;2023-05-10T06:45:20;13.93;;;6.88;;
41059;SDS011;26811;53.160;8.202;2023-05-10T06:50:21;10.70;;;6.40;;
41059;SDS011;26811;53.160;8.202;2023-05-10T06:55:21;12.70;;;6.97;;
41059;SDS011;26811;53.160;8.202;2023-05-10T07:00:22;12.02;;;6.97;;
41059;SDS011;26811;53.160;8.202;2023-05-10T07:05:22;12.48;;;6.78;;
41059;SDS011;26811;53.160;8.202;2023-05-10T07:10:27;10.73;;;6.80;;
41059;SDS011;26811;53.160;8.202;2023-05-10T07:15:28;14.77;;;7.40;;
41059;SDS011;26811;53.160;8.202;2023-05-10T07:20:30;12.05;;;7.07;;
41059;SDS011;26811;53.160;8.202;2023-05-10T07:25:30;11.50;;;6.50;;
41059;SDS011;26811;53.160;8.202;2023-05-10T07:30:31;11.35;;;6.53;;
41059;SDS011;26811;53.160;8.202;2023-05-10T07:35:31;14.55;;;7.13;;
41059;SDS011;26811;53.160;8.202;2023-05-10T07:40:32;12.60;;;7.10;;
41059;SDS011;26811;53.160;8.202;2023-05-10T07:45:33;9.70;;;6.25;;
41059;SDS011;26811;53.160;8.202;2023-05-10T07:50:33;9.88;;;5.90;;
41059;SDS011;26811;53.160;8.202;2023-05-10T07:55:37;9.95;;;6.45;;
41059;SDS011;26811;53.160;8.202;2023-05-10T08:00:37;8.05;;;5.45;;
41059;SDS011;26811;53.160;8.202;2023-05-10T08:05:40;9.52;;;5.97;;
41059;SDS011;26811;53.160;8.202;2023-05-10T08:10:41;9.27;;;5.55;;
41059;SDS011;26811;53.160;8.202;2023-05-10T08:15:41;10.73;;;5.15;;
41059;SDS011;26811;53.160;8.202;2023-05-10T08:20:42;8.30;;;4.95;;
41059;SDS011;26811;53.160;8.202;2023-05-10T08:25:42;7.43;;;4.38;;
41059;SDS011;26811;53.160;8.202;2023-05-10T08:30:43;8.25;;;4.88;;
41059;SDS011;26811;53.160;8.202;2023-05-10T08:35:43;7.13;;;4.30;;
41059;SDS011;26811;53.160;8.202;2023-05-10T08:40:44;4.72;;;3.38;;
41059;SDS011;26811;53.160;8.202;2023-05-10T08:45:45;4.97;;;3.78;;
41059;SDS011;26811;53.160;8.202;2023-05-10T08:50:46;4.70;;;3.72;;
41059;SDS011;26811;53.160;8.202;2023-05-10T08:55:48;7.13;;;3.92;;
41059;SDS011;26811;53.160;8.202;2023-05-10T09:00:49;4.43;;;3.75;;
41059;SDS011;26811;53.160;8.202;2023-05-10T09:05:53;6.88;;;4.30;;
41059;SDS011;26811;53.160;8.202;2023-05-10T09:10:55;5.43;;;4.05;;
41059;SDS011;26811;53.160;8.202;2023-05-10T09:15:56;4.82;;;3.85;;
41059;SDS011;26811;53.160;8.202;2023-05-10T09:20:57;4.47;;;3.60;;
41059;SDS011;26811;53.160;8.202;2023-05-10T09:26:01;5.68;;;3.97;;
41059;SDS011;26811;53.160;8.202;2023-05-10T09:31:04;6.53;;;4.00;;
41059;SDS011;26811;53.160;8.202;2023-05-10T09:36:08;7.25;;;3.05;;
41059;SDS011;26811;53.160;8.202;2023-05-10T09:41:15;5.72;;;3.53;;
41059;SDS011;26811;53.160;8.202;2023-05-10T09:46:20;2.88;;;2.58;;
41059;SDS011;26811;53.160;8.202;2023-05-10T09:51:23;2.60;;;2.40;;
41059;SDS011;26811;53.160;8.202;2023-05-10T09:56:34;2.50;;;2.07;;
41059;SDS011;26811;53.160;8.202;2023-05-10T10:01:36;2.25;;;2.03;;
41059;SDS011;26811;53.160;8.202;2023-05-10T10:06:40;2.38;;;1.90;;
41059;SDS011;26811;53.160;8.202;2023-05-10T10:11:40;4.38;;;2.83;;
41059;SDS011;26811;53.160;8.202;2023-05-10T10:16:41;2.17;;;2.08;;
41059;SDS011;26811;53.160;8.202;2023-05-10T10:21:41;1.70;;;1.58;;
41059;SDS011;26811;53.160;8.202;2023-05-10T10:26:42;1.52;;;1.42;;
41059;SDS011;26811;53.160;8.202;2023-05-10T10:37:12;0.90;;;0.90;;
41059;SDS011;26811;53.160;8.202;2023-05-10T10:42:13;1.00;;;1.00;;
41059;SDS011;26811;53.160;8.202;2023-05-10T10:52:25;1.45;;;1.30;;
41059;SDS011;26811;53.160;8.202;2023-05-10T10:57:33;1.52;;;1.42;;
41059;SDS011;26811;53.160;8.202;2023-05-10T11:02:44;2.55;;;1.30;;
41059;SDS011;26811;53.160;8.202;2023-05-10T11:07:57;1.52;;;1.23;;
41059;SDS011;26811;53.160;8.202;2023-05-10T11:13:02;1.30;;;1.20;;
41059;SDS011;26811;53.160;8.202;2023-05-10T11:18:20;1.30;;;1.30;;
41059;SDS011;26811;53.160;8.202;2023-05-10T11:23:23;4.63;;;1.85;;
41059;SDS011;26811;53.160;8.202;2023-05-10T11:28:29;2.30;;;2.10;;
41059;SDS011;26811;53.160;8.202;2023-05-10T11:33:30;3.05;;;2.85;;
41059;SDS011;26811;53.160;8.202;2023-05-10T11:38:42;3.90;;;3.45;;
41059;SDS011;26811;53.160;8.202;2023-05-10T11:43:42;6.20;;;4.78;;
41059;SDS011;26811;53.160;8.202;2023-05-10T11:48:45;10.65;;;5.93;;
41059;SDS011;26811;53.160;8.202;2023-05-10T11:53:55;11.95;;;7.68;;
41059;SDS011;26811;53.160;8.202;2023-05-10T11:58:57;14.02;;;8.75;;
41059;SDS011;26811;53.160;8.202;2023-05-10T12:03:58;14.07;;;9.35;;
41059;SDS011;26811;53.160;8.202;2023-05-10T12:09:02;17.60;;;10.10;;
41059;SDS011;26811;53.160;8.202;2023-05-10T12:14:06;17.52;;;10.32;;
41059;SDS011;26811;53.160;8.202;2023-05-10T12:19:08;17.00;;;9.87;;
41059;SDS011;26811;53.160;8.202;2023-05-10T12:24:08;14.63;;;9.13;;
41059;SDS011;26811;53.160;8.202;2023-05-10T12:29:14;13.55;;;9.50;;
41059;SDS011;26811;53.160;8.202;2023-05-10T12:34:25;17.23;;;8.70;;
41059;SDS011;26811;53.160;8.202;2023-05-10T12:39:26;13.10;;;9.43;;
41059;SDS011;26811;53.160;8.202;2023-05-10T12:44:41;12.43;;;9.77;;
41059;SDS011;26811;53.160;8.202;2023-05-10T12:49:42;13.98;;;10.30;;
41059;SDS011;26811;53.160;8.202;2023-05-10T12:54:42;10.85;;;9.25;;
41059;SDS011;26811;53.160;8.202;2023-05-10T12:59:43;10.98;;;8.10;;
41059;SDS011;26811;53.160;8.202;2023-05-10T13:04:44;12.38;;;7.95;;
41059;SDS011;26811;53.160;8.202;2023-05-10T13:09:46;8.73;;;7.53;;
41059;SDS011;26811;53.160;8.202;2023-05-10T13:14:46;8.68;;;7.45;;
41059;SDS011;26811;53.160;8.202;2023-05-10T13:19:47;9.48;;;7.68;;
41059;SDS011;26811;53.160;8.202;2023-05-10T13:24:47;9.18;;;6.72;;
41059;SDS011;26811;53.160;8.202;2023-05-10T13:29:48;9.07;;;7.10;;
41059;SDS011;26811;53.160;8.202;2023-05-10T13:34:48;6.40;;;5.80;;
41059;SDS011;26811;53.160;8.202;2023-05-10T13:39:49;6.80;;;6.10;;
41059;SDS011;26811;53.160;8.202;2023-05-10T13:44:50;7.53;;;6.40;;
41059;SDS011;26811;53.160;8.202;2023-05-10T13:49:51;7.40;;;6.32;;
41059;SDS011;26811;53.160;8.202;2023-05-10T13:54:51;5.85;;;5.30;;
41059;SDS011;26811;53.160;8.202;2023-05-10T13:59:54;3.13;;;2.80;;
41059;SDS011;26811;53.160;8.202;2023-05-10T14:04:55;3.20;;;2.97;;
41059;SDS011;26811;53.160;8.202;2023-05-10T14:09:55;5.90;;;3.60;;
41059;SDS011;26811;53.160;8.202;2023-05-10T14:14:56;4.65;;;3.80;;
41059;SDS011;26811;53.160;8.202;2023-05-10T14:19:58;4.78;;;3.25;;
41059;SDS011;26811;53.160;8.202;2023-05-10T14:24:58;3.58;;;3.28;;
41059;SDS011;26811;53.160;8.202;2023-05-10T14:30:00;5.15;;;3.70;;
41059;SDS011;26811;53.160;8.202;2023-05-10T14:35:00;4.47;;;3.45;;
41059;SDS011;26811;53.160;8.202;2023-05-10T14:40:01;3.20;;;2.85;;
41059;SDS011;26811;53.160;8.202;2023-05-10T14:45:03;3.33;;;2.92;;
41059;SDS011;26811;53.160;8.202;2023-05-10T14:50:04;3.33;;;2.80;;
41059;SDS011;26811;53.160;8.202;2023-05-10T14:55:05;3.22;;;2.92;;
41059;SDS011;26811;53.160;8.202;2023-05-10T15:00:06;3.83;;;2.67;;
41059;SDS011;26811;53.160;8.202;2023-05-10T15:05:07;2.95;;;2.70;;
41059;SDS011;26811;53.160;8.202;2023-05-10T15:10:08;4.32;;;2.20;;
41059;SDS011;26811;53.160;8.202;2023-05-10T15:15:09;2.67;;;2.42;;
41059;SDS011;26811;53.160;8.202;2023-05-10T15:20:10;3.90;;;2.80;;
41059;SDS011;26811;53.160;8.202;2023-05-10T15:25:10;5.15;;;3.28;;
41059;SDS011;26811;53.160;8.202;2023-05-10T15:30:11;2.72;;;2.53;;
41059;SDS011;26811;53.160;8.202;2023-05-10T15:35:12;2.80;;;2.60;;
41059;SDS011;26811;53.160;8.202;2023-05-10T15:40:13;3.92;;;2.30;;
41059;SDS011;26811;53.160;8.202;2023-05-10T15:45:14;2.95;;;2.42;;
41059;SDS011;26811;53.160;8.202;2023-05-10T15:50:15;3.00;;;2.40;;
41059;SDS011;26811;53.160;8.202;2023-05-10T15:55:16;2.90;;;2.70;;
41059;SDS011;26811;53.160;8.202;2023-05-10T16:00:17;4.43;;;2.42;;
41059;SDS011;26811;53.160;8.202;2023-05-10T16:05:17;3.45;;;2.33;;
41059;SDS011;26811;53.160;8.202;2023-05-10T16:10:18;7.50;;;2.70;;
41059;SDS011;26811;53.160;8.202;2023-05-10T16:15:19;2.70;;;2.40;;
41059;SDS011;26811;53.160;8.202;2023-05-10T16:20:20;5.23;;;2.40;;
41059;SDS011;26811;53.160;8.202;2023-05-10T16:25:21;3.38;;;2.65;;
41059;SDS011;26811;53.160;8.202;2023-05-10T16:30:21;5.65;;;2.67;;
41059;SDS011;26811;53.160;8.202;2023-05-10T16:35:24;3.80;;;2.40;;
41059;SDS011;26811;53.160;8.202;2023-05-10T16:40:25;2.88;;;2.47;;
41059;SDS011;26811;53.160;8.202;2023-05-10T16:45:25;2.50;;;2.25;;
41059;SDS011;26811;53.160;8.202;2023-05-10T16:50:26;2.97;;;2.65;;
41059;SDS011;26811;53.160;8.202;2023-05-10T16:55:26;3.20;;;2.35;;
41059;SDS011;26811;53.160;8.202;2023-05-10T17:00:27;3.22;;;2.80;;
41059;SDS011;26811;53.160;8.202;2023-05-10T17:05:28;4.97;;;2.60;;
41059;SDS011;26811;53.160;8.202;2023-05-10T17:10:28;7.68;;;3.58;;
41059;SDS011;26811;53.160;8.202;2023-05-10T17:15:29;6.70;;;3.72;;
41059;SDS011;26811;53.160;8.202;2023-05-10T17:20:29;5.18;;;3.83;;
41059;SDS011;26811;53.160;8.202;2023-05-10T17:25:30;9.07;;;3.35;;
41059;SDS011;26811;53.160;8.202;2023-05-10T17:30:31;5.20;;;3.40;;
41059;SDS011;26811;53.160;8.202;2023-05-10T17:35:31;6.28;;;3.60;;
41059;SDS011;26811;53.160;8.202;2023-05-10T17:40:32;10.30;;;4.18;;
41059;SDS011;26811;53.160;8.202;2023-05-10T17:45:32;4.75;;;3.38;;
41059;SDS011;26811;53.160;8.202;2023-05-10T17:50:33;4.15;;;3.00;;
41059;SDS011;26811;53.160;8.202;2023-05-10T17:55:34;4.85;;;3.08;;
41059;SDS011;26811;53.160;8.202;2023-05-10T18:00:35;6.57;;;3.13;;
41059;SDS011;26811;53.160;8.202;2023-05-10T18:05:36;8.40;;;3.67;;
41059;SDS011;26811;53.160;8.202;2023-05-10T18:10:37;3.80;;;3.33;;
41059;SDS011;26811;53.160;8.202;2023-05-10T18:15:38;5.20;;;3.88;;
41059;SDS011;26811;53.160;8.202;2023-05-10T18:20:40;8.07;;;4.18;;
41059;SDS011;26811;53.160;8.202;2023-05-10T18:25:40;9.38;;;4.50;;
41059;SDS011;26811;53.160;8.202;2023-05-10T18:30:41;6.57;;;5.18;;
41059;SDS011;26811;53.160;8.202;2023-05-10T18:35:41;12.57;;;8.55;;
41059;SDS011;26811;53.160;8.202;2023-05-10T18:40:42;11.45;;;8.65;;
41059;SDS011;26811;53.160;8.202;2023-05-10T18:45:42;11.63;;;8.18;;
41059;SDS011;26811;53.160;8.202;2023-05-10T18:50:43;7.68;;;5.93;;
41059;SDS011;26811;53.160;8.202;2023-05-10T18:55:44;7.53;;;5.32;;
41059;SDS011;26811;53.160;8.202;2023-05-10T19:00:44;6.93;;;4.65;;
41059;SDS011;26811;53.160;8.202;2023-05-10T19:05:45;12.07;;;4.80;;
41059;SDS011;26811;53.160;8.202;2023-05-10T19:10:47;9.98;;;5.07;;
41059;SDS011;26811;53.160;8.202;2023-05-10T19:15:59;7.68;;;5.47;;
41059;SDS011;26811;53.160;8.202;2023-05-10T19:21:02;5.88;;;5.03;;
41059;SDS011;26811;53.160;8.202;2023-05-10T19:26:07;9.55;;;5.63;;
41059;SDS011;26811;53.160;8.202;2023-05-10T19:31:08;6.55;;;5.05;;
41059;SDS011;26811;53.160;8.202;2023-05-10T19:36:09;6.47;;;4.60;;
41059;SDS011;26811;53.160;8.202;2023-05-10T19:41:09;8.35;;;4.82;;
41059;SDS011;26811;53.160;8.202;2023-05-10T19:46:10;9.65;;;5.07;;
41059;SDS011;26811;53.160;8.202;2023-05-10T19:51:11;9.20;;;5.18;;
41059;SDS011;26811;53.160;8.202;2023-05-10T19:56:11;5.88;;;4.95;;
41059;SDS011;26811;53.160;8.202;2023-05-10T20:01:13;8.60;;;5.07;;
41059;SDS011;26811;53.160;8.202;2023-05-10T20:06:13;7.13;;;5.32;;
41059;SDS011;26811;53.160;8.202;2023-05-10T20:11:14;9.73;;;5.22;;
41059;SDS011;26811;53.160;8.202;2023-05-10T20:16:15;9.10;;;6.10;;
41059;SDS011;26811;53.160;8.202;2023-05-10T20:21:15;11.68;;;5.93;;
41059;SDS011;26811;53.160;8.202;2023-05-10T20:26:16;9.35;;;6.35;;
41059;SDS011;26811;53.160;8.202;2023-05-10T20:31:16;13.15;;;6.60;;
41059;SDS011;26811;53.160;8.202;2023-05-10T20:36:17;10.52;;;6.53;;
41059;SDS011;26811;53.160;8.202;2023-05-10T20:41:17;11.52;;;6.75;;
41059;SDS011;26811;53.160;8.202;2023-05-10T20:46:27;11.48;;;6.78;;
41059;SDS011;26811;53.160;8.202;2023-05-10T20:51:27;10.80;;;6.93;;
41059;SDS011;26811;53.160;8.202;2023-05-10T20:56:29;9.82;;;7.22;;
41059;SDS011;26811;53.160;8.202;2023-05-10T21:01:30;14.23;;;7.32;;
41059;SDS011;26811;53.160;8.202;2023-05-10T21:06:33;14.18;;;8.07;;
41059;SDS011;26811;53.160;8.202;2023-05-10T21:11:34;12.35;;;8.50;;
41059;SDS011;26811;53.160;8.202;2023-05-10T21:16:35;11.70;;;8.07;;
41059;SDS011;26811;53.160;8.202;2023-05-10T21:21:35;15.18;;;8.85;;
41059;SDS011;26811;53.160;8.202;2023-05-10T21:26:36;13.77;;;7.90;;
41059;SDS011;26811;53.160;8.202;2023-05-10T21:31:37;13.82;;;9.38;;
41059;SDS011;26811;53.160;8.202;2023-05-10T21:36:37;15.90;;;8.60;;
41059;SDS011;26811;53.160;8.202;2023-05-10T21:41:38;13.68;;;8.52;;
41059;SDS011;26811;53.160;8.202;2023-05-10T21:46:38;12.68;;;8.65;;
41059;SDS011;26811;53.160;8.202;2023-05-10T21:51:39;18.85;;;9.27;;
41059;SDS011;26811;53.160;8.202;2023-05-10T21:56:39;14.50;;;9.00;;
41059;SDS011;26811;53.160;8.202;2023-05-10T22:01:40;18.08;;;10.55;;
41059;SDS011;26811;53.160;8.202;2023-05-10T22:06:42;18.95;;;10.23;;
41059;SDS011;26811;53.160;8.202;2023-05-10T22:11:43;15.65;;;9.65;;
41059;SDS011;26811;53.160;8.202;2023-05-10T22:16:44;15.48;;;9.57;;
41059;SDS011;26811;53.160;8.202;2023-05-10T22:21:45;18.30;;;10.32;;
41059;SDS011;26811;53.160;8.202;2023-05-10T22:26:45;18.73;;;10.48;;
41059;SDS011;26811;53.160;8.202;2023-05-10T22:31:46;19.08;;;10.05;;
41059;SDS011;26811;53.160;8.202;2023-05-10T22:36:46;16.83;;;9.70;;
41059;SDS011;26811;53.160;8.202;2023-05-10T22:41:48;16.73;;;9.63;;
41059;SDS011;26811;53.160;8.202;2023-05-10T22:46:49;16.35;;;9.98;;
41059;SDS011;26811;53.160;8.202;2023-05-10T22:51:49;15.20;;;9.57;;
41059;SDS011;26811;53.160;8.202;2023-05-10T22:56:50;18.35;;;9.68;;
41059;SDS011;26811;53.160;8.202;2023-05-10T23:01:50;17.13;;;9.75;;
41059;SDS011;26811;53.160;8.202;2023-05-10T23:06:51;15.60;;;9.30;;
41059;SDS011;26811;53.160;8.202;2023-05-10T23:11:52;19.75;;;10.40;;
41059;SDS011;26811;53.160;8.202;2023-05-10T23:16:52;17.80;;;10.10;;
41059;SDS011;26811;53.160;8.202;2023-05-10T23:21:53;19.73;;;11.25;;
41059;SDS011;26811;53.160;8.202;2023-05-10T23:26:54;19.70;;;11.40;;
41059;SDS011;26811;53.160;8.202;2023-05-10T23:31:54;22.33;;;11.82;;
41059;SDS011;26811;53.160;8.202;2023-05-10T23:36:55;23.50;;;11.35;;
41059;SDS011;26811;53.160;8.202;2023-05-10T23:41:55;26.25;;;12.95;;
41059;SDS011;26811;53.160;8.202;2023-05-10T23:46:56;25.95;;;12.90;;
41059;SDS011;26811;53.160;8.202;2023-05-10T23:51:56;29.00;;;14.32;;
41059;SDS011;26811;53.160;8.202;2023-05-10T23:56:57;31.25;;;14.65;;
